sensor_id;sensor_type;location;lat;lon;timestamp;pressure;altitude;pressure_sealevel;temperature;humidity
70841;BME280;58465;51.534;9.934;2022-08-19T00:01:28;99569.81;;;20.94;73.72
70841;BME280;58465;51.534;9.934;2022-08-19T00:03:55;99561.25;;;20.88;73.82
70841;BME280;58465;51.534;9.934;2022-08-19T00:06:20;99570.25;;;20.88;74.03
70841;BME280;58465;51.534;9.934;2022-08-19T00:08:46;99543.00;;;20.77;74.18
70841;BME280;58465;51.534;9.934;2022-08-19T00:11:12;99553.13;;;20.75;74.74
70841;BME280;58465;51.534;9.934;2022-08-19T00:13:38;99542.91;;;20.79;74.77
70841;BME280;58465;51.534;9.934;2022-08-19T00:16:04;99544.13;;;20.74;74.55
70841;BME280;58465;51.534;9.934;2022-08-19T00:18:31;99538.81;;;20.73;74.86
70841;BME280;58465;51.534;9.934;2022-08-19T00:20:56;99541.31;;;20.63;74.65
70841;BME280;58465;51.534;9.934;2022-08-19T00:23:21;99548.13;;;20.69;74.28
70841;BME280;58465;51.534;9.934;2022-08-19T00:25:47;99545.97;;;20.61;74.47
70841;BME280;58465;51.534;9.934;2022-08-19T00:28:12;99539.00;;;20.57;74.79
70841;BME280;58465;51.534;9.934;2022-08-19T00:30:37;99544.66;;;20.67;74.73
70841;BME280;58465;51.534;9.934;2022-08-19T00:33:03;99552.06;;;20.65;74.64
70841;BME280;58465;51.534;9.934;2022-08-19T00:35:28;99545.75;;;20.64;74.68
70841;BME280;58465;51.534;9.934;2022-08-19T00:37:54;99544.34;;;20.59;74.59
70841;BME280;58465;51.534;9.934;2022-08-19T00:40:21;99565.53;;;20.66;74.80
70841;BME280;58465;51.534;9.934;2022-08-19T00:42:46;99558.47;;;20.64;74.74
70841;BME280;58465;51.534;9.934;2022-08-19T00:45:15;99555.19;;;20.59;74.72
70841;BME280;58465;51.534;9.934;2022-08-19T00:47:43;99554.97;;;20.62;74.44
70841;BME280;58465;51.534;9.934;2022-08-19T00:50:09;99546.41;;;20.55;74.21
70841;BME280;58465;51.534;9.934;2022-08-19T00:52:39;99547.72;;;20.62;73.84
70841;BME280;58465;51.534;9.934;2022-08-19T00:55:08;99541.41;;;20.62;74.32
70841;BME280;58465;51.534;9.934;2022-08-19T00:57:39;99543.38;;;20.60;74.12
70841;BME280;58465;51.534;9.934;2022-08-19T01:00:09;99548.56;;;20.63;73.72
70841;BME280;58465;51.534;9.934;2022-08-19T01:02:37;99551.28;;;20.63;73.44
70841;BME280;58465;51.534;9.934;2022-08-19T01:05:06;99538.03;;;20.58;73.27
70841;BME280;58465;51.534;9.934;2022-08-19T01:07:34;99542.28;;;20.62;72.73
70841;BME280;58465;51.534;9.934;2022-08-19T01:10:01;99535.13;;;20.61;72.55
70841;BME280;58465;51.534;9.934;2022-08-19T01:12:26;99528.50;;;20.53;72.59
70841;BME280;58465;51.534;9.934;2022-08-19T01:14:52;99545.19;;;20.59;72.88
70841;BME280;58465;51.534;9.934;2022-08-19T01:17:19;99528.16;;;20.57;72.26
70841;BME280;58465;51.534;9.934;2022-08-19T01:19:45;99533.84;;;20.54;72.46
70841;BME280;58465;51.534;9.934;2022-08-19T01:22:25;99517.25;;;20.46;72.68
70841;BME280;58465;51.534;9.934;2022-08-19T01:24:52;99519.94;;;20.46;72.48
70841;BME280;58465;51.534;9.934;2022-08-19T01:27:17;99518.97;;;20.47;72.85
70841;BME280;58465;51.534;9.934;2022-08-19T01:29:44;99525.25;;;20.48;72.71
70841;BME280;58465;51.534;9.934;2022-08-19T01:32:13;99515.41;;;20.47;72.89
70841;BME280;58465;51.534;9.934;2022-08-19T01:34:40;99522.66;;;20.46;72.78
70841;BME280;58465;51.534;9.934;2022-08-19T01:37:08;99524.63;;;20.44;72.75
70841;BME280;58465;51.534;9.934;2022-08-19T01:39:36;99509.94;;;20.34;72.72
70841;BME280;58465;51.534;9.934;2022-08-19T01:42:01;99525.47;;;20.45;72.75
70841;BME280;58465;51.534;9.934;2022-08-19T01:44:28;99532.84;;;20.43;72.95
70841;BME280;58465;51.534;9.934;2022-08-19T01:46:54;99529.28;;;20.42;72.56
70841;BME280;58465;51.534;9.934;2022-08-19T01:49:21;99524.06;;;20.39;72.82
70841;BME280;58465;51.534;9.934;2022-08-19T01:51:47;99520.22;;;20.29;72.83
70841;BME280;58465;51.534;9.934;2022-08-19T01:54:15;99524.38;;;20.60;72.45
70841;BME280;58465;51.534;9.934;2022-08-19T01:56:41;99513.25;;;20.88;70.65
70841;BME280;58465;51.534;9.934;2022-08-19T01:59:11;99520.19;;;20.92;70.57
70841;BME280;58465;51.534;9.934;2022-08-19T02:01:38;99513.72;;;20.82;70.22
70841;BME280;58465;51.534;9.934;2022-08-19T02:04:03;99528.34;;;20.92;70.20
70841;BME280;58465;51.534;9.934;2022-08-19T02:06:30;99527.38;;;20.93;70.34
70841;BME280;58465;51.534;9.934;2022-08-19T02:08:56;99519.22;;;20.93;69.95
70841;BME280;58465;51.534;9.934;2022-08-19T02:11:27;99520.75;;;20.85;70.13
70841;BME280;58465;51.534;9.934;2022-08-19T02:13:54;99528.16;;;20.83;70.36
70841;BME280;58465;51.534;9.934;2022-08-19T02:16:20;99522.94;;;20.80;70.41
70841;BME280;58465;51.534;9.934;2022-08-19T02:18:46;99526.19;;;20.85;70.22
70841;BME280;58465;51.534;9.934;2022-08-19T02:21:14;99526.72;;;20.90;70.25
70841;BME280;58465;51.534;9.934;2022-08-19T02:23:40;99525.75;;;20.91;70.25
70841;BME280;58465;51.534;9.934;2022-08-19T02:26:06;99511.50;;;20.87;70.03
70841;BME280;58465;51.534;9.934;2022-08-19T02:28:31;99516.31;;;20.84;70.24
70841;BME280;58465;51.534;9.934;2022-08-19T02:30:57;99516.88;;;20.76;70.38
70841;BME280;58465;51.534;9.934;2022-08-19T02:33:25;99516.00;;;20.76;70.10
70841;BME280;58465;51.534;9.934;2022-08-19T02:35:50;99499.53;;;20.66;70.26
70841;BME280;58465;51.534;9.934;2022-08-19T02:38:16;99502.75;;;20.71;70.12
70841;BME280;58465;51.534;9.934;2022-08-19T02:41:00;99507.97;;;20.74;70.01
70841;BME280;58465;51.534;9.934;2022-08-19T02:43:28;99514.28;;;20.74;69.83
70841;BME280;58465;51.534;9.934;2022-08-19T02:45:53;99516.88;;;20.76;69.99
70841;BME280;58465;51.534;9.934;2022-08-19T02:48:20;99525.53;;;20.81;70.11
70841;BME280;58465;51.534;9.934;2022-08-19T02:50:47;99530.19;;;20.79;69.87
70841;BME280;58465;51.534;9.934;2022-08-19T02:53:13;99529.00;;;20.83;69.85
70841;BME280;58465;51.534;9.934;2022-08-19T02:55:44;99522.06;;;20.79;69.96
70841;BME280;58465;51.534;9.934;2022-08-19T02:58:10;99504.81;;;20.67;70.09
70841;BME280;58465;51.534;9.934;2022-08-19T03:00:41;99510.13;;;20.69;69.97
70841;BME280;58465;51.534;9.934;2022-08-19T03:03:07;99510.38;;;20.66;70.34
70841;BME280;58465;51.534;9.934;2022-08-19T03:05:32;99505.16;;;20.63;70.48
70841;BME280;58465;51.534;9.934;2022-08-19T03:07:58;99495.19;;;20.51;70.77
70841;BME280;58465;51.534;9.934;2022-08-19T03:10:23;99507.69;;;20.53;70.67
70841;BME280;58465;51.534;9.934;2022-08-19T03:12:49;99535.53;;;20.68;70.39
70841;BME280;58465;51.534;9.934;2022-08-19T03:15:14;99542.81;;;20.67;70.00
70841;BME280;58465;51.534;9.934;2022-08-19T03:17:40;99546.75;;;20.63;70.39
70841;BME280;58465;51.534;9.934;2022-08-19T03:20:06;99540.75;;;20.58;70.47
70841;BME280;58465;51.534;9.934;2022-08-19T03:22:31;99539.69;;;20.61;70.27
70841;BME280;58465;51.534;9.934;2022-08-19T03:24:57;99552.28;;;20.62;70.25
70841;BME280;58465;51.534;9.934;2022-08-19T03:27:22;99527.53;;;20.54;70.39
70841;BME280;58465;51.534;9.934;2022-08-19T03:29:47;99552.94;;;20.65;70.05
70841;BME280;58465;51.534;9.934;2022-08-19T03:32:13;99553.91;;;20.64;70.10
70841;BME280;58465;51.534;9.934;2022-08-19T03:34:38;99549.09;;;20.68;70.16
70841;BME280;58465;51.534;9.934;2022-08-19T03:37:09;99547.25;;;20.68;69.89
70841;BME280;58465;51.534;9.934;2022-08-19T03:39:37;99552.78;;;20.67;69.67
70841;BME280;58465;51.534;9.934;2022-08-19T03:42:03;99558.00;;;20.70;68.61
70841;BME280;58465;51.534;9.934;2022-08-19T03:44:29;99573.09;;;20.74;69.09
70841;BME280;58465;51.534;9.934;2022-08-19T03:46:57;99573.22;;;20.72;68.74
70841;BME280;58465;51.534;9.934;2022-08-19T03:49:26;99567.22;;;20.67;68.48
70841;BME280;58465;51.534;9.934;2022-08-19T03:51:53;99553.81;;;20.66;68.09
70841;BME280;58465;51.534;9.934;2022-08-19T03:54:20;99565.38;;;20.68;67.51
70841;BME280;58465;51.534;9.934;2022-08-19T03:56:49;99552.78;;;20.67;67.48
70841;BME280;58465;51.534;9.934;2022-08-19T03:59:18;99568.66;;;20.73;67.50
70841;BME280;58465;51.534;9.934;2022-08-19T04:01:45;99566.81;;;20.73;66.72
70841;BME280;58465;51.534;9.934;2022-08-19T04:04:11;99564.09;;;20.73;66.44
70841;BME280;58465;51.534;9.934;2022-08-19T04:06:38;99564.31;;;20.70;66.67
70841;BME280;58465;51.534;9.934;2022-08-19T04:09:08;99557.25;;;20.68;66.77
70841;BME280;58465;51.534;9.934;2022-08-19T04:11:46;99558.47;;;20.64;66.72
70841;BME280;58465;51.534;9.934;2022-08-19T04:14:18;99554.78;;;20.65;66.66
70841;BME280;58465;51.534;9.934;2022-08-19T04:16:45;99564.00;;;20.62;67.04
70841;BME280;58465;51.534;9.934;2022-08-19T04:19:12;99561.38;;;20.61;67.13
70841;BME280;58465;51.534;9.934;2022-08-19T04:21:38;99566.91;;;20.59;67.22
70841;BME280;58465;51.534;9.934;2022-08-19T04:24:04;99556.81;;;20.61;66.78
70841;BME280;58465;51.534;9.934;2022-08-19T04:26:32;99560.31;;;20.63;66.69
70841;BME280;58465;51.534;9.934;2022-08-19T04:29:02;99565.06;;;20.60;66.48
70841;BME280;58465;51.534;9.934;2022-08-19T04:31:30;99574.06;;;20.60;66.25
70841;BME280;58465;51.534;9.934;2022-08-19T04:33:57;99567.88;;;20.58;66.29
70841;BME280;58465;51.534;9.934;2022-08-19T04:36:25;99553.78;;;20.53;66.22
70841;BME280;58465;51.534;9.934;2022-08-19T04:38:54;99558.00;;;20.57;66.08
70841;BME280;58465;51.534;9.934;2022-08-19T04:41:20;99557.47;;;20.52;65.65
70841;BME280;58465;51.534;9.934;2022-08-19T04:44:04;99550.72;;;20.58;65.61
70841;BME280;58465;51.534;9.934;2022-08-19T04:46:30;99550.44;;;20.62;65.56
70841;BME280;58465;51.534;9.934;2022-08-19T04:48:57;99535.56;;;20.55;65.03
70841;BME280;58465;51.534;9.934;2022-08-19T04:51:22;99549.44;;;20.63;64.95
70841;BME280;58465;51.534;9.934;2022-08-19T04:53:48;99559.09;;;20.67;64.97
70841;BME280;58465;51.534;9.934;2022-08-19T04:56:15;99552.38;;;20.60;64.93
70841;BME280;58465;51.534;9.934;2022-08-19T04:58:44;99553.13;;;20.62;64.93
70841;BME280;58465;51.534;9.934;2022-08-19T05:01:27;99558.78;;;20.59;64.92
70841;BME280;58465;51.534;9.934;2022-08-19T05:03:57;99559.63;;;20.60;64.95
70841;BME280;58465;51.534;9.934;2022-08-19T05:06:23;99569.00;;;20.56;65.00
70841;BME280;58465;51.534;9.934;2022-08-19T05:08:49;99561.94;;;20.53;64.99
70841;BME280;58465;51.534;9.934;2022-08-19T05:11:18;99567.88;;;20.58;64.59
70841;BME280;58465;51.534;9.934;2022-08-19T05:13:46;99588.72;;;20.58;64.58
70841;BME280;58465;51.534;9.934;2022-08-19T05:16:13;99577.88;;;20.58;64.67
70841;BME280;58465;51.534;9.934;2022-08-19T05:18:39;99587.84;;;20.57;64.69
70841;BME280;58465;51.534;9.934;2022-08-19T05:21:24;99571.91;;;20.53;64.70
70841;BME280;58465;51.534;9.934;2022-08-19T05:24:08;99588.41;;;20.62;64.55
70841;BME280;58465;51.534;9.934;2022-08-19T05:26:38;99580.16;;;20.64;64.31
70841;BME280;58465;51.534;9.934;2022-08-19T05:29:04;99581.81;;;20.66;64.09
70841;BME280;58465;51.534;9.934;2022-08-19T05:31:30;99576.47;;;20.65;63.73
70841;BME280;58465;51.534;9.934;2022-08-19T05:33:56;99574.75;;;20.64;63.52
70841;BME280;58465;51.534;9.934;2022-08-19T05:36:27;99570.72;;;20.69;63.27
70841;BME280;58465;51.534;9.934;2022-08-19T05:38:53;99571.13;;;20.89;62.63
70841;BME280;58465;51.534;9.934;2022-08-19T05:41:19;99567.22;;;20.93;62.13
70841;BME280;58465;51.534;9.934;2022-08-19T05:43:45;99567.63;;;20.99;61.83
70841;BME280;58465;51.534;9.934;2022-08-19T05:46:17;99564.34;;;21.07;61.56
70841;BME280;58465;51.534;9.934;2022-08-19T05:48:43;99566.84;;;21.10;61.24
70841;BME280;58465;51.534;9.934;2022-08-19T05:51:08;99550.88;;;21.05;60.79
70841;BME280;58465;51.534;9.934;2022-08-19T05:53:34;99569.34;;;21.13;60.50
70841;BME280;58465;51.534;9.934;2022-08-19T05:56:07;99564.66;;;21.15;60.47
70841;BME280;58465;51.534;9.934;2022-08-19T05:58:34;99567.38;;;21.15;60.35
70841;BME280;58465;51.534;9.934;2022-08-19T06:01:00;99576.53;;;21.14;60.56
70841;BME280;58465;51.534;9.934;2022-08-19T06:03:33;99576.97;;;21.21;60.33
70841;BME280;58465;51.534;9.934;2022-08-19T06:05:59;99585.63;;;21.26;60.20
70841;BME280;58465;51.534;9.934;2022-08-19T06:08:26;99579.56;;;21.22;59.95
70841;BME280;58465;51.534;9.934;2022-08-19T06:10:52;99578.34;;;21.26;59.83
70841;BME280;58465;51.534;9.934;2022-08-19T06:13:17;99561.75;;;21.05;60.36
70841;BME280;58465;51.534;9.934;2022-08-19T06:15:44;99575.75;;;21.12;60.52
70841;BME280;58465;51.534;9.934;2022-08-19T06:18:12;99585.19;;;21.06;60.77
70841;BME280;58465;51.534;9.934;2022-08-19T06:20:37;99578.56;;;21.10;60.64
70841;BME280;58465;51.534;9.934;2022-08-19T06:23:02;99586.19;;;21.18;60.51
70841;BME280;58465;51.534;9.934;2022-08-19T06:25:28;99594.63;;;21.26;60.42
70841;BME280;58465;51.534;9.934;2022-08-19T06:27:54;99578.47;;;21.12;60.59
70841;BME280;58465;51.534;9.934;2022-08-19T06:30:19;99591.06;;;21.13;60.68
70841;BME280;58465;51.534;9.934;2022-08-19T06:32:44;99595.09;;;21.20;60.57
70841;BME280;58465;51.534;9.934;2022-08-19T06:35:10;99593.66;;;21.27;60.36
70841;BME280;58465;51.534;9.934;2022-08-19T06:37:37;99588.34;;;21.26;59.54
70841;BME280;58465;51.534;9.934;2022-08-19T06:40:02;99594.44;;;21.29;59.92
70841;BME280;58465;51.534;9.934;2022-08-19T06:42:28;99595.94;;;21.33;59.70
70841;BME280;58465;51.534;9.934;2022-08-19T06:44:54;99607.03;;;21.30;59.27
70841;BME280;58465;51.534;9.934;2022-08-19T06:47:21;99612.16;;;21.22;59.55
70841;BME280;58465;51.534;9.934;2022-08-19T06:49:46;99606.81;;;21.33;59.06
70841;BME280;58465;51.534;9.934;2022-08-19T06:52:12;99624.31;;;21.53;58.73
70841;BME280;58465;51.534;9.934;2022-08-19T06:54:39;99629.47;;;21.45;57.56
70841;BME280;58465;51.534;9.934;2022-08-19T06:57:05;99626.75;;;21.45;57.07
70841;BME280;58465;51.534;9.934;2022-08-19T06:59:31;99629.72;;;21.42;57.37
70841;BME280;58465;51.534;9.934;2022-08-19T07:01:59;99637.88;;;21.42;57.20
70841;BME280;58465;51.534;9.934;2022-08-19T07:04:28;99649.13;;;21.48;57.06
70841;BME280;58465;51.534;9.934;2022-08-19T07:07:09;99658.56;;;21.56;55.62
70841;BME280;58465;51.534;9.934;2022-08-19T07:09:37;99653.56;;;21.62;55.64
70841;BME280;58465;51.534;9.934;2022-08-19T07:12:05;99669.41;;;21.68;55.65
70841;BME280;58465;51.534;9.934;2022-08-19T07:14:32;99673.09;;;21.67;54.96
70841;BME280;58465;51.534;9.934;2022-08-19T07:16:58;99676.97;;;21.76;55.30
70841;BME280;58465;51.534;9.934;2022-08-19T07:19:26;99669.88;;;21.86;55.05
70841;BME280;58465;51.534;9.934;2022-08-19T07:21:53;99672.38;;;21.89;54.69
70841;BME280;58465;51.534;9.934;2022-08-19T07:24:19;99664.97;;;21.91;54.45
70841;BME280;58465;51.534;9.934;2022-08-19T07:26:45;99675.22;;;22.11;54.01
70841;BME280;58465;51.534;9.934;2022-08-19T07:29:11;99663.16;;;22.15;53.96
70841;BME280;58465;51.534;9.934;2022-08-19T07:31:37;99677.31;;;22.32;53.52
70841;BME280;58465;51.534;9.934;2022-08-19T07:34:05;99682.41;;;22.36;53.42
70841;BME280;58465;51.534;9.934;2022-08-19T07:36:36;99686.59;;;22.40;53.52
70841;BME280;58465;51.534;9.934;2022-08-19T07:39:06;99685.56;;;22.54;53.29
70841;BME280;58465;51.534;9.934;2022-08-19T07:41:32;99695.88;;;22.73;52.75
70841;BME280;58465;51.534;9.934;2022-08-19T07:43:59;99692.78;;;22.66;52.57
70841;BME280;58465;51.534;9.934;2022-08-19T07:46:28;99691.75;;;22.56;52.60
70841;BME280;58465;51.534;9.934;2022-08-19T07:48:56;99711.56;;;22.69;52.80
70841;BME280;58465;51.534;9.934;2022-08-19T07:51:21;99708.59;;;22.96;52.19
70841;BME280;58465;51.534;9.934;2022-08-19T07:53:48;99701.91;;;23.00;52.18
70841;BME280;58465;51.534;9.934;2022-08-19T07:56:16;99701.91;;;23.00;52.13
70841;BME280;58465;51.534;9.934;2022-08-19T07:58:44;99711.19;;;22.98;51.96
70841;BME280;58465;51.534;9.934;2022-08-19T08:01:15;99701.91;;;23.00;52.07
70841;BME280;58465;51.534;9.934;2022-08-19T08:03:40;99708.00;;;23.15;51.82
70841;BME280;58465;51.534;9.934;2022-08-19T08:06:24;99697.59;;;23.31;51.46
70841;BME280;58465;51.534;9.934;2022-08-19T08:09:09;99701.94;;;23.34;51.06
70841;BME280;58465;51.534;9.934;2022-08-19T08:11:53;99709.25;;;23.33;51.07
70841;BME280;58465;51.534;9.934;2022-08-19T08:14:22;99719.91;;;23.25;51.38
70841;BME280;58465;51.534;9.934;2022-08-19T08:16:49;99714.59;;;23.35;51.12
70841;BME280;58465;51.534;9.934;2022-08-19T08:19:20;99715.06;;;23.28;51.08
70841;BME280;58465;51.534;9.934;2022-08-19T08:21:47;99706.03;;;23.39;50.58
70841;BME280;58465;51.534;9.934;2022-08-19T08:24:13;99709.00;;;23.36;51.07
70841;BME280;58465;51.534;9.934;2022-08-19T08:26:39;99702.94;;;23.55;50.66
70841;BME280;58465;51.534;9.934;2022-08-19T08:29:04;99690.47;;;23.52;50.70
70841;BME280;58465;51.534;9.934;2022-08-19T08:31:30;99708.72;;;23.95;49.83
70841;BME280;58465;51.534;9.934;2022-08-19T08:33:56;99693.00;;;23.87;49.86
70841;BME280;58465;51.534;9.934;2022-08-19T08:36:21;99702.91;;;23.88;49.50
70841;BME280;58465;51.534;9.934;2022-08-19T08:38:46;99710.88;;;23.69;50.10
70841;BME280;58465;51.534;9.934;2022-08-19T08:41:25;99698.13;;;23.70;49.74
70841;BME280;58465;51.534;9.934;2022-08-19T08:43:53;99711.97;;;23.89;49.30
70841;BME280;58465;51.534;9.934;2022-08-19T08:46:35;99713.31;;;23.94;49.30
70841;BME280;58465;51.534;9.934;2022-08-19T08:49:19;99710.22;;;23.99;48.94
70841;BME280;58465;51.534;9.934;2022-08-19T08:51:51;99727.78;;;24.06;48.94
70841;BME280;58465;51.534;9.934;2022-08-19T08:54:20;99723.84;;;24.10;48.08
70841;BME280;58465;51.534;9.934;2022-08-19T08:56:51;99713.78;;;24.11;48.36
70841;BME280;58465;51.534;9.934;2022-08-19T08:59:35;99714.13;;;24.17;47.81
70841;BME280;58465;51.534;9.934;2022-08-19T09:02:01;99717.22;;;24.13;48.35
70841;BME280;58465;51.534;9.934;2022-08-19T09:04:27;99713.28;;;24.05;47.84
70841;BME280;58465;51.534;9.934;2022-08-19T09:07:06;99720.59;;;24.05;48.40
70841;BME280;58465;51.534;9.934;2022-08-19T09:09:42;99724.59;;;24.01;47.87
70841;BME280;58465;51.534;9.934;2022-08-19T09:12:26;99717.97;;;24.15;47.25
70841;BME280;58465;51.534;9.934;2022-08-19T09:15:00;99726.69;;;24.52;46.98
70841;BME280;58465;51.534;9.934;2022-08-19T09:17:29;99732.78;;;24.76;46.57
70841;BME280;58465;51.534;9.934;2022-08-19T09:20:22;99717.59;;;24.83;46.63
70841;BME280;58465;51.534;9.934;2022-08-19T09:22:46;99716.81;;;24.92;46.31
70841;BME280;58465;51.534;9.934;2022-08-19T09:25:20;99711.97;;;24.96;45.76
70841;BME280;58465;51.534;9.934;2022-08-19T09:27:50;99718.94;;;25.09;45.64
70841;BME280;58465;51.534;9.934;2022-08-19T09:30:22;99717.75;;;25.23;45.04
70841;BME280;58465;51.534;9.934;2022-08-19T09:32:49;99729.06;;;25.19;45.21
70841;BME280;58465;51.534;9.934;2022-08-19T09:35:17;99728.00;;;25.10;45.83
70841;BME280;58465;51.534;9.934;2022-08-19T09:37:43;99722.91;;;25.17;45.69
70841;BME280;58465;51.534;9.934;2022-08-19T09:40:09;99728.38;;;25.17;45.76
70841;BME280;58465;51.534;9.934;2022-08-19T09:42:36;99716.16;;;25.00;45.97
70841;BME280;58465;51.534;9.934;2022-08-19T09:45:02;99726.25;;;25.30;45.79
70841;BME280;58465;51.534;9.934;2022-08-19T09:47:28;99729.53;;;25.44;44.89
70841;BME280;58465;51.534;9.934;2022-08-19T09:49:54;99731.50;;;25.63;44.55
70841;BME280;58465;51.534;9.934;2022-08-19T09:52:19;99717.19;;;25.90;43.71
70841;BME280;58465;51.534;9.934;2022-08-19T09:54:45;99723.44;;;26.11;43.47
70841;BME280;58465;51.534;9.934;2022-08-19T09:57:10;99723.41;;;25.92;43.46
70841;BME280;58465;51.534;9.934;2022-08-19T09:59:36;99720.19;;;25.87;43.92
70841;BME280;58465;51.534;9.934;2022-08-19T10:02:01;99706.97;;;25.92;43.35
70841;BME280;58465;51.534;9.934;2022-08-19T10:04:27;99710.19;;;26.26;42.55
70841;BME280;58465;51.534;9.934;2022-08-19T10:07:12;99705.03;;;26.23;41.97
70841;BME280;58465;51.534;9.934;2022-08-19T10:09:37;99695.13;;;26.60;41.16
70841;BME280;58465;51.534;9.934;2022-08-19T10:12:04;99702.63;;;26.49;41.61
70841;BME280;58465;51.534;9.934;2022-08-19T10:14:30;99706.50;;;26.37;42.06
70841;BME280;58465;51.534;9.934;2022-08-19T10:16:56;99693.91;;;26.24;42.06
70841;BME280;58465;51.534;9.934;2022-08-19T10:19:21;99680.19;;;26.05;42.79
70841;BME280;58465;51.534;9.934;2022-08-19T10:21:47;99684.47;;;25.79;42.51
70841;BME280;58465;51.534;9.934;2022-08-19T10:24:12;99697.19;;;25.99;42.88
70841;BME280;58465;51.534;9.934;2022-08-19T10:26:39;99687.00;;;26.11;42.64
70841;BME280;58465;51.534;9.934;2022-08-19T10:29:07;99669.97;;;26.07;42.52
70841;BME280;58465;51.534;9.934;2022-08-19T10:31:33;99674.31;;;26.10;42.87
70841;BME280;58465;51.534;9.934;2022-08-19T10:34:00;99672.44;;;26.01;42.87
70841;BME280;58465;51.534;9.934;2022-08-19T10:36:28;99678.72;;;25.82;43.11
70841;BME280;58465;51.534;9.934;2022-08-19T10:38:56;99659.47;;;26.03;42.91
70841;BME280;58465;51.534;9.934;2022-08-19T10:41:26;99661.97;;;26.35;42.00
70841;BME280;58465;51.534;9.934;2022-08-19T10:43:54;99652.59;;;26.37;41.98
70841;BME280;58465;51.534;9.934;2022-08-19T10:46:21;99658.94;;;26.57;41.22
70841;BME280;58465;51.534;9.934;2022-08-19T10:48:48;99665.88;;;26.51;41.78
70841;BME280;58465;51.534;9.934;2022-08-19T10:51:14;99657.34;;;26.54;41.76
70841;BME280;58465;51.534;9.934;2022-08-19T10:53:59;99663.84;;;26.44;41.14
70841;BME280;58465;51.534;9.934;2022-08-19T10:56:25;99655.91;;;26.21;41.27
70841;BME280;58465;51.534;9.934;2022-08-19T10:59:09;99650.97;;;26.06;41.91
70841;BME280;58465;51.534;9.934;2022-08-19T11:01:35;99649.44;;;26.32;41.12
70841;BME280;58465;51.534;9.934;2022-08-19T11:04:02;99650.59;;;26.49;41.10
70841;BME280;58465;51.534;9.934;2022-08-19T11:06:28;99639.78;;;26.47;40.91
70841;BME280;58465;51.534;9.934;2022-08-19T11:08:54;99632.13;;;26.60;40.20
70841;BME280;58465;51.534;9.934;2022-08-19T11:11:20;99621.75;;;26.35;40.51
70841;BME280;58465;51.534;9.934;2022-08-19T11:13:48;99632.69;;;26.45;40.50
70841;BME280;58465;51.534;9.934;2022-08-19T11:16:26;99640.38;;;26.41;40.67
70841;BME280;58465;51.534;9.934;2022-08-19T11:18:54;99639.06;;;26.45;40.75
70841;BME280;58465;51.534;9.934;2022-08-19T11:21:35;99653.72;;;26.64;40.05
70841;BME280;58465;51.534;9.934;2022-08-19T11:24:05;99646.38;;;26.74;40.34
70841;BME280;58465;51.534;9.934;2022-08-19T11:26:32;99649.53;;;26.98;39.12
70841;BME280;58465;51.534;9.934;2022-08-19T11:28:59;99630.75;;;27.03;39.13
70841;BME280;58465;51.534;9.934;2022-08-19T11:31:29;99627.53;;;27.17;38.86
70841;BME280;58465;51.534;9.934;2022-08-19T11:34:01;99629.22;;;27.28;38.06
70841;BME280;58465;51.534;9.934;2022-08-19T11:36:28;99611.97;;;27.45;38.02
70841;BME280;58465;51.534;9.934;2022-08-19T11:38:54;99638.34;;;27.83;38.06
70841;BME280;58465;51.534;9.934;2022-08-19T11:41:22;99630.94;;;27.66;37.44
70841;BME280;58465;51.534;9.934;2022-08-19T11:43:54;99624.38;;;27.77;37.19
70841;BME280;58465;51.534;9.934;2022-08-19T11:46:22;99616.50;;;28.27;36.39
70841;BME280;58465;51.534;9.934;2022-08-19T11:48:48;99630.22;;;29.06;35.37
70841;BME280;58465;51.534;9.934;2022-08-19T11:51:19;99621.91;;;29.58;33.91
70841;BME280;58465;51.534;9.934;2022-08-19T11:53:45;99617.78;;;30.04;33.00
70841;BME280;58465;51.534;9.934;2022-08-19T11:56:11;99609.56;;;30.44;31.45
70841;BME280;58465;51.534;9.934;2022-08-19T11:58:39;99619.53;;;31.02;30.74
70841;BME280;58465;51.534;9.934;2022-08-19T12:01:08;99604.41;;;31.45;30.57
70841;BME280;58465;51.534;9.934;2022-08-19T12:03:34;99598.66;;;31.71;29.98
70841;BME280;58465;51.534;9.934;2022-08-19T12:06:08;99592.03;;;31.80;29.42
70841;BME280;58465;51.534;9.934;2022-08-19T12:08:34;99602.38;;;32.09;29.30
70841;BME280;58465;51.534;9.934;2022-08-19T12:10:59;99609.00;;;32.00;29.03
70841;BME280;58465;51.534;9.934;2022-08-19T12:13:29;99595.03;;;32.24;28.91
70841;BME280;58465;51.534;9.934;2022-08-19T12:15:55;99609.66;;;32.93;27.97
70841;BME280;58465;51.534;9.934;2022-08-19T12:18:21;99603.13;;;32.71;28.15
70841;BME280;58465;51.534;9.934;2022-08-19T12:20:46;99596.44;;;33.03;28.04
70841;BME280;58465;51.534;9.934;2022-08-19T12:23:12;99596.13;;;33.86;26.59
70841;BME280;58465;51.534;9.934;2022-08-19T12:25:44;99601.09;;;33.91;26.45
70841;BME280;58465;51.534;9.934;2022-08-19T12:28:15;99598.06;;;33.27;27.35
70841;BME280;58465;51.534;9.934;2022-08-19T12:30:41;99592.59;;;32.90;27.71
70841;BME280;58465;51.534;9.934;2022-08-19T12:33:06;99586.72;;;33.22;27.48
70841;BME280;58465;51.534;9.934;2022-08-19T12:35:32;99586.63;;;33.15;27.31
70841;BME280;58465;51.534;9.934;2022-08-19T12:37:58;99584.56;;;32.80;27.60
70841;BME280;58465;51.534;9.934;2022-08-19T12:40:24;99583.84;;;33.15;27.19
70841;BME280;58465;51.534;9.934;2022-08-19T12:42:50;99583.50;;;34.20;26.43
70841;BME280;58465;51.534;9.934;2022-08-19T12:45:16;99576.53;;;34.73;25.47
70841;BME280;58465;51.534;9.934;2022-08-19T12:47:41;99576.34;;;35.30;24.38
70841;BME280;58465;51.534;9.934;2022-08-19T12:50:07;99583.75;;;35.58;23.85
70841;BME280;58465;51.534;9.934;2022-08-19T12:52:35;99584.66;;;34.47;25.30
70841;BME280;58465;51.534;9.934;2022-08-19T12:55:04;99577.88;;;33.92;25.79
70841;BME280;58465;51.534;9.934;2022-08-19T12:57:30;99582.03;;;34.24;25.80
70841;BME280;58465;51.534;9.934;2022-08-19T13:00:04;99571.41;;;33.70;26.40
70841;BME280;58465;51.534;9.934;2022-08-19T13:02:33;99569.66;;;34.41;25.34
70841;BME280;58465;51.534;9.934;2022-08-19T13:05:00;99572.63;;;35.17;23.87